Time;durP1;ratioP1;P1;durP2;ratioP2;P2;SDS_P1;SDS_P2;PMS_P1;PMS_P2;Temp;Humidity;BMP_temperature;BMP_pressure;BME280_temperature;BME280_humidity;BME280_pressure;Samples;Min_cycle;Max_cycle;Signal;HPM_P1;HPM_P2
2022/08/04 00:03:23;;;;;;;8.60;3.30;;;;;;;20.90;53.29;100067.36;104356;1279;63252;-74
2022/08/04 00:06:49;;;;;;;8.30;3.30;;;;;;;20.90;53.14;100062.73;104608;1279;74004;-72
2022/08/04 00:10:02;;;;;;;9.00;3.30;;;;;;;20.89;53.06;100063.19;104654;1280;67902;-72
2022/08/04 00:12:53;;;;;;;11.00;3.40;;;;;;;20.90;52.73;100062.06;104674;1279;71903;-74
2022/08/04 00:15:43;;;;;;;10.60;3.70;;;;;;;20.90;52.76;100062.06;104412;1280;59833;-72
2022/08/04 00:18:51;;;;;;;11.80;3.50;;;;;;;20.88;52.66;100068.56;104349;1280;61054;-72
2022/08/04 00:21:50;;;;;;;9.50;3.50;;;;;;;20.87;52.42;100065.48;104436;1280;73854;-72
2022/08/04 00:24:38;;;;;;;10.00;3.20;;;;;;;20.86;51.98;100067.91;104468;1279;69674;-69
2022/08/04 00:27:30;;;;;;;9.90;3.30;;;;;;;20.88;51.70;100069.28;104453;1279;73439;-72
2022/08/04 00:30:18;;;;;;;9.20;3.30;;;;;;;20.90;51.38;100069.60;104522;1279;59910;-70
2022/08/04 00:33:06;;;;;;;8.80;3.50;;;;;;;20.92;51.22;100069.00;104344;1280;60599;-71
2022/08/04 00:35:56;;;;;;;7.20;2.90;;;;;;;20.92;50.98;100071.45;104389;1279;74712;-72
2022/08/04 00:38:44;;;;;;;7.20;3.00;;;;;;;20.95;50.55;100072.79;104509;1273;68613;-71
2022/08/04 00:42:00;;;;;;;8.40;2.90;;;;;;;20.97;50.28;100067.70;105012;1273;73641;-70
2022/08/04 00:44:54;;;;;;;10.30;3.30;;;;;;;20.98;49.98;100064.64;104861;1273;59781;-72
2022/08/04 00:48:31;;;;;;;10.20;2.90;;;;;;;21.01;49.90;100057.67;104800;1273;60454;-72
2022/08/04 00:51:52;;;;;;;6.00;2.50;;;;;;;21.00;49.84;100051.80;105023;1273;74863;-72
2022/08/04 00:55:40;;;;;;;7.30;3.20;;;;;;;20.98;49.95;100050.84;104940;1273;69568;-72
2022/08/04 00:58:38;;;;;;;8.40;3.10;;;;;;;20.94;50.28;100060.16;105079;1273;72020;-74
2022/08/04 01:02:00;;;;;;;9.50;3.10;;;;;;;20.89;50.27;100054.23;104914;1273;59994;-74
2022/08/04 01:05:19;;;;;;;8.70;3.10;;;;;;;20.85;50.20;100056.00;105024;1273;61326;-74
2022/08/04 01:09:00;;;;;;;7.60;2.60;;;;;;;20.82;50.29;100057.12;104945;1273;73502;-72
2022/08/04 01:11:57;;;;;;;7.60;2.80;;;;;;;20.78;50.35;100057.19;105110;1273;69528;-73
2022/08/04 01:15:18;;;;;;;10.50;3.10;;;;;;;20.75;50.35;100056.98;105236;1273;73483;-74
2022/08/04 01:18:14;;;;;;;6.50;2.60;;;;;;;20.74;50.32;100055.51;104836;1273;59933;-72
2022/08/04 01:21:14;;;;;;;8.50;3.00;;;;;;;20.72;50.32;100054.95;104942;1273;62239;-71
2022/08/04 01:24:31;;;;;;;8.40;2.70;;;;;;;20.71;50.34;100052.81;104953;1273;73876;-71
2022/08/04 01:28:09;;;;;;;7.70;2.90;;;;;;;20.69;50.51;100051.90;104830;1273;68312;-73
2022/08/04 01:31:07;;;;;;;7.80;2.80;;;;;;;20.67;50.50;100049.83;104668;1274;72390;-72
2022/08/04 01:34:05;;;;;;;12.00;3.10;;;;;;;20.64;50.57;100050.86;104759;1273;59788;-72
2022/08/04 01:37:52;;;;;;;11.10;3.00;;;;;;;20.63;50.58;100052.13;104804;1273;62292;-73
2022/08/04 01:40:41;;;;;;;7.90;3.20;;;;;;;20.63;50.48;100050.09;104232;1282;74730;-71
2022/08/04 01:43:32;;;;;;;7.40;3.10;;;;;;;20.65;50.39;100051.13;104448;1282;69587;-73
2022/08/04 01:46:22;;;;;;;7.50;3.00;;;;;;;20.65;50.38;100055.08;104172;1282;73542;-72
2022/08/04 01:49:11;;;;;;;7.90;3.00;;;;;;;20.66;50.32;100053.73;104032;1282;59749;-73
2022/08/04 01:52:01;;;;;;;7.40;2.60;;;;;;;20.67;50.34;100050.98;103988;1282;62439;-72
2022/08/04 01:54:50;;;;;;;8.50;2.90;;;;;;;20.68;50.40;100050.41;104133;1282;73947;-74
2022/08/04 01:57:48;;;;;;;8.20;3.20;;;;;;;20.67;50.38;100048.67;104016;1282;69478;-74
2022/08/04 02:00:44;;;;;;;9.60;3.00;;;;;;;20.68;50.29;100049.69;104252;1282;74429;-73
2022/08/04 02:03:34;;;;;;;8.50;2.80;;;;;;;20.68;50.42;100052.80;104092;1282;59678;-73
2022/08/04 02:07:14;;;;;;;8.20;3.30;;;;;;;20.67;50.47;100050.94;104226;1282;60117;-73
2022/08/04 02:10:17;;;;;;;8.20;3.10;;;;;;;20.68;50.60;100048.28;104219;1282;74966;-73
2022/08/04 02:13:17;;;;;;;8.40;2.70;;;;;;;20.68;50.69;100045.57;104242;1282;68656;-71
2022/08/04 02:16:24;;;;;;;7.00;3.10;;;;;;;20.68;50.81;100047.26;104857;1273;72128;-70
2022/08/04 02:19:24;;;;;;;9.40;3.20;;;;;;;20.65;50.96;100047.70;104787;1273;59637;-71
2022/08/04 02:22:17;;;;;;;7.20;3.30;;;;;;;20.61;51.17;100041.88;104759;1273;60194;-70
2022/08/04 02:25:09;;;;;;;7.60;3.30;;;;;;;20.57;51.33;100040.35;104727;1273;75017;-69
2022/08/04 02:28:01;;;;;;;7.00;3.00;;;;;;;20.53;51.50;100038.73;104780;1273;69578;-71
2022/08/04 02:31:26;;;;;;;7.90;3.40;;;;;;;20.48;51.82;100036.60;104732;1273;74434;-72
2022/08/04 02:35:02;;;;;;;8.00;3.70;;;;;;;20.43;51.94;100034.66;104759;1274;59647;-72
2022/08/04 02:38:10;;;;;;;11.20;3.40;;;;;;;20.38;52.03;100036.50;104752;1273;60237;-71
2022/08/04 02:41:00;;;;;;;8.60;3.20;;;;;;;20.34;52.07;100032.45;105048;1273;74298;-72
2022/08/04 02:43:49;;;;;;;7.70;3.30;;;;;;;20.31;52.09;100028.32;104766;1273;69577;-72
2022/08/04 02:46:41;;;;;;;8.90;3.10;;;;;;;20.28;52.23;100028.55;104810;1273;72267;-71
2022/08/04 02:49:34;;;;;;;8.90;3.30;;;;;;;20.25;52.14;100028.01;104931;1273;59669;-74
2022/08/04 02:52:26;;;;;;;7.70;3.30;;;;;;;20.21;52.27;100028.98;104833;1273;61091;-74
2022/08/04 02:55:16;;;;;;;7.00;3.10;;;;;;;20.19;52.28;100027.12;104739;1273;74879;-71
2022/08/04 02:58:06;;;;;;;7.20;3.20;;;;;;;20.15;52.27;100023.60;104752;1274;68566;-72
2022/08/04 03:00:55;;;;;;;8.90;3.10;;;;;;;20.11;52.50;100024.59;104797;1273;73460;-73
2022/08/04 03:03:58;;;;;;;8.60;3.30;;;;;;;20.08;52.75;100028.48;104852;1273;59881;-69
2022/08/04 03:07:56;;;;;;;7.20;3.50;;;;;;;20.04;52.88;100024.98;104874;1273;61354;-72
2022/08/04 03:11:28;;;;;;;8.80;3.30;;;;;;;20.01;53.18;100024.04;104768;1279;72662;-72
2022/08/04 03:14:38;;;;;;;7.30;3.70;;;;;;;19.96;53.54;100025.05;104455;1279;68103;-74
2022/08/04 03:17:59;;;;;;;7.10;3.10;;;;;;;19.93;53.73;100022.22;104291;1279;73758;-71
2022/08/04 03:21:08;;;;;;;8.60;3.30;;;;;;;19.90;54.05;100025.59;104328;1279;59977;-71
2022/08/04 03:24:34;;;;;;;7.80;3.50;;;;;;;19.87;54.21;100028.30;104465;1279;62076;-73
2022/08/04 03:27:52;;;;;;;8.10;3.50;;;;;;;19.84;54.29;100031.00;104574;1279;73928;-74
2022/08/04 03:31:23;;;;;;;8.30;3.40;;;;;;;19.81;54.45;100031.35;104297;1279;68503;-73
2022/08/04 03:34:45;;;;;;;7.00;3.30;;;;;;;19.79;54.71;100033.20;104600;1279;74498;-71
2022/08/04 03:38:03;;;;;;;7.90;3.40;;;;;;;19.78;54.92;100030.84;104338;1279;59740;-74
2022/08/04 03:41:00;;;;;;;11.50;3.80;;;;;;;19.79;55.12;100034.52;104319;1279;60696;-72
2022/08/04 03:44:10;;;;;;;8.50;3.70;;;;;;;19.79;55.14;100036.10;104461;1279;73395;-73
2022/08/04 03:47:39;;;;;;;8.30;3.50;;;;;;;19.81;55.22;100040.56;104743;1273;67572;-72
2022/08/04 03:53:07;;;;;;;8.10;3.30;;;;;;;19.84;55.34;100038.74;104913;1273;70980;-72
2022/08/04 03:54:59;;;;;;;10.40;3.70;;;;;;;19.89;55.40;100038.75;104996;1273;59624;-73
2022/08/04 03:58:33;;;;;;;7.90;3.50;;;;;;;19.94;55.32;100043.95;104912;1273;61854;-73
2022/08/04 04:01:33;;;;;;;9.10;3.90;;;;;;;19.99;55.41;100049.31;104806;1273;74846;-73
2022/08/04 04:04:52;;;;;;;8.10;3.90;;;;;;;20.03;55.51;100050.17;104767;1273;68662;-72
2022/08/04 04:08:37;;;;;;;11.00;3.90;;;;;;;20.08;55.47;100050.71;104920;1273;73537;-73
2022/08/04 04:11:48;;;;;;;8.70;4.00;;;;;;;20.14;55.47;100049.81;105074;1273;59714;-72
2022/08/04 04:15:29;;;;;;;8.80;3.80;;;;;;;20.20;55.44;100050.21;105505;1273;60633;-73
2022/08/04 04:19:00;;;;;;;11.90;4.10;;;;;;;20.27;55.26;100054.57;105094;1273;73791;-72
2022/08/04 04:22:20;;;;;;;8.50;4.10;;;;;;;20.35;55.28;100057.20;104715;1273;68973;-69
2022/08/04 04:25:28;;;;;;;11.50;4.30;;;;;;;20.42;55.20;100055.68;105120;1273;74274;-73
2022/08/04 04:29:04;;;;;;;8.50;3.90;;;;;;;20.50;55.00;100052.76;104848;1273;59808;-75
2022/08/04 04:32:08;;;;;;;10.00;4.30;;;;;;;20.60;54.85;100055.36;104976;1273;61213;-73
2022/08/04 04:35:30;;;;;;;9.00;4.00;;;;;;;20.67;54.71;100053.91;104928;1273;75005;-69
2022/08/04 04:38:43;;;;;;;10.50;4.40;;;;;;;20.75;54.60;100055.70;105527;1272;68822;-68
2022/08/04 04:41:56;;;;;;;11.90;4.40;;;;;;;20.82;54.30;100052.35;105000;1273;72557;-66
2022/08/04 04:45:01;;;;;;;14.00;4.90;;;;;;;20.91;54.27;100046.98;104931;1273;61035;-66
2022/08/04 04:48:59;;;;;;;10.40;4.40;;;;;;;20.99;53.94;100041.30;104687;1273;61036;-66
2022/08/04 04:52:05;;;;;;;9.30;4.10;;;;;;;21.13;53.81;100046.09;104555;1279;74613;-68
2022/08/04 04:55:23;;;;;;;11.20;4.70;;;;;;;21.25;53.59;100049.70;104693;1277;69907;-70
2022/08/04 04:58:16;;;;;;;10.50;4.20;;;;;;;21.37;53.31;100045.00;104478;1277;72958;-71
2022/08/04 05:01:39;;;;;;;9.80;4.40;;;;;;;21.48;53.13;100047.56;104309;1278;59770;-71
2022/08/04 05:05:00;;;;;;;10.80;4.30;;;;;;;21.62;52.89;100054.27;104386;1277;60496;-71
2022/08/04 05:08:17;;;;;;;14.80;4.50;;;;;;;21.78;52.60;100051.64;104403;1277;72622;-71
2022/08/04 05:11:42;;;;;;;15.70;4.90;;;;;;;22.02;52.21;100056.02;104517;1277;69684;-63
2022/08/04 05:14:40;;;;;;;15.20;4.80;;;;;;;22.27;51.54;100055.96;104808;1277;72959;-74
2022/08/04 05:17:46;;;;;;;17.00;5.00;;;;;;;22.61;51.03;100055.43;104465;1277;59835;-75
2022/08/04 05:20:42;;;;;;;12.10;4.50;;;;;;;23.44;49.23;100056.24;104351;1279;59649;-74
2022/08/04 05:23:36;;;;;;;27.50;5.30;;;;;;;24.42;46.95;100054.09;104726;1273;72955;-75
2022/08/04 05:26:31;;;;;;;12.10;4.70;;;;;;;25.27;44.54;100052.17;104711;1273;561864;-78
2022/08/04 05:29:30;;;;;;;12.90;4.40;;;;;;;26.00;42.63;100049.89;104891;1273;74383;-72
2022/08/04 05:32:25;;;;;;;17.60;4.70;;;;;;;26.62;41.06;100044.20;104583;1276;59723;-74
2022/08/04 05:35:26;;;;;;;10.40;4.30;;;;;;;27.76;39.62;100039.45;105060;1273;60503;-74
2022/08/04 05:38:38;;;;;;;10.80;3.70;;;;;;;28.85;36.56;100043.52;105018;1273;71939;-75
2022/08/04 05:41:29;;;;;;;11.30;3.50;;;;;;;29.58;35.33;100044.08;104911;1276;69760;-73
2022/08/04 05:44:34;;;;;;;15.60;4.30;;;;;;;30.32;33.26;100039.36;105084;1273;71590;-74
2022/08/04 05:47:24;;;;;;;14.60;3.70;;;;;;;30.87;32.29;100039.13;104947;1274;59786;-73
2022/08/04 05:50:13;;;;;;;14.30;3.80;;;;;;;31.43;31.44;100040.70;105041;1273;60268;-75
2022/08/04 05:53:02;;;;;;;10.50;3.40;;;;;;;31.98;30.39;100036.89;105083;1273;73293;-74
2022/08/04 05:55:51;;;;;;;9.80;3.30;;;;;;;32.26;29.58;100037.02;104866;1273;68593;-72
2022/08/04 05:58:46;;;;;;;8.50;3.50;;;;;;;32.94;29.40;100046.54;105042;1274;71332;-74
2022/08/04 06:01:37;;;;;;;11.10;3.40;;;;;;;33.48;28.08;100042.50;105044;1273;60006;-75
2022/08/04 06:04:48;;;;;;;11.70;3.40;;;;;;;33.89;27.59;100046.65;105291;1273;61007;-73
2022/08/04 06:07:36;;;;;;;12.10;3.10;;;;;;;34.26;26.97;100039.87;105143;1273;72000;-70
2022/08/04 06:10:47;;;;;;;9.70;2.80;;;;;;;34.54;26.22;100041.22;105018;1273;69369;-76
2022/08/04 06:13:52;;;;;;;10.30;3.30;;;;;;;34.56;26.45;100038.45;105351;1272;74360;-76
2022/08/04 06:16:43;;;;;;;9.10;2.80;;;;;;;34.92;25.91;100041.45;105217;1273;59853;-74
2022/08/04 06:19:41;;;;;;;15.00;3.30;;;;;;;35.28;25.39;100046.04;105037;1273;61103;-77
2022/08/04 06:22:56;;;;;;;8.80;2.80;;;;;;;35.78;25.15;100045.36;104911;1273;73298;-75
2022/08/04 06:25:56;;;;;;;10.00;2.90;;;;;;;35.94;23.89;100037.63;104800;1274;68430;-71
2022/08/04 06:28:49;;;;;;;10.20;3.10;;;;;;;36.12;23.62;100044.05;104989;1273;72673;-74
2022/08/04 06:31:56;;;;;;;11.50;3.70;;;;;;;36.43;23.35;100040.97;104908;1272;59658;-78
2022/08/04 06:35:07;;;;;;;10.00;2.70;;;;;;;36.87;22.90;100042.80;105036;1271;59711;-74
2022/08/04 06:37:56;;;;;;;8.70;3.00;;;;;;;37.23;22.16;100045.08;104935;1273;73238;-77
2022/08/04 06:40:47;;;;;;;14.90;3.50;;;;;;;37.47;22.19;100045.92;105623;1273;67525;-78
2022/08/04 06:43:38;;;;;;;9.30;2.90;;;;;;;37.77;21.51;100043.59;105061;1274;74401;-74
2022/08/04 06:46:37;;;;;;;12.40;3.00;;;;;;;37.90;21.35;100039.56;105198;1273;59701;-76
2022/08/04 06:49:25;;;;;;;9.60;2.60;;;;;;;38.06;21.16;100039.46;105275;1273;60529;-78
2022/08/04 06:52:16;;;;;;;12.50;2.70;;;;;;;38.12;20.80;100041.02;105041;1273;73433;-77
2022/08/04 06:55:07;;;;;;;10.80;3.00;;;;;;;38.40;20.68;100041.04;104925;1274;68121;-77
2022/08/04 06:57:56;;;;;;;7.60;2.70;;;;;;;38.61;20.38;100037.88;105387;1274;73772;-78
2022/08/04 07:00:50;;;;;;;9.50;2.80;;;;;;;38.72;20.23;100037.06;105036;1273;59662;-77
2022/08/04 07:03:38;;;;;;;9.30;2.70;;;;;;;39.13;19.80;100038.93;105216;1273;60567;-76
2022/08/04 07:06:26;;;;;;;9.90;3.20;;;;;;;39.55;19.42;100034.73;105034;1273;73284;-77
2022/08/04 07:09:15;;;;;;;7.30;2.50;;;;;;;40.01;19.16;100034.95;105029;1273;68489;-76
2022/08/04 07:12:04;;;;;;;9.00;2.70;;;;;;;40.50;18.63;100035.36;105108;1274;72044;-77
2022/08/04 07:14:57;;;;;;;7.60;2.50;;;;;;;40.87;18.17;100032.30;104943;1275;59635;-78
2022/08/04 07:17:46;;;;;;;11.60;2.70;;;;;;;41.13;17.58;100030.39;105023;1273;60476;-79
2022/08/04 07:20:42;;;;;;;7.50;2.50;;;;;;;41.13;17.45;100028.77;105182;1273;73308;-78
2022/08/04 07:23:30;;;;;;;6.80;2.10;;;;;;;41.36;17.40;100030.70;104923;1273;67989;-75
2022/08/04 07:26:19;;;;;;;9.80;2.30;;;;;;;41.40;16.64;100027.39;105099;1273;71613;-76
2022/08/04 07:29:11;;;;;;;7.90;2.60;;;;;;;41.59;17.05;100030.58;105086;1276;59833;-77
2022/08/04 07:32:00;;;;;;;9.20;2.30;;;;;;;41.72;16.61;100027.70;105044;1273;60369;-76
2022/08/04 07:34:49;;;;;;;6.80;2.30;;;;;;;41.58;16.61;100029.09;105174;1273;73499;-79
2022/08/04 07:37:39;;;;;;;6.20;2.20;;;;;;;41.20;16.86;100031.56;104803;1275;66539;-77
2022/08/04 07:40:29;;;;;;;8.10;2.30;;;;;;;40.93;16.93;100026.20;105027;1273;73212;-75
2022/08/04 07:43:18;;;;;;;9.70;2.50;;;;;;;40.98;16.95;100028.37;105270;1273;59716;-77
2022/08/04 07:46:06;;;;;;;6.70;2.30;;;;;;;41.24;16.94;100028.70;104972;1273;60871;-77
2022/08/04 07:48:54;;;;;;;8.50;2.60;;;;;;;41.33;16.59;100022.44;105175;1276;71873;-78
2022/08/04 07:51:43;;;;;;;6.90;2.20;;;;;;;41.25;16.51;100021.71;104968;1276;68081;-74
2022/08/04 07:54:32;;;;;;;8.10;2.30;;;;;;;40.93;16.82;100020.46;105025;1276;71983;-74
2022/08/04 07:57:20;;;;;;;7.40;2.10;;;;;;;40.89;17.05;100019.94;104952;1274;59704;-75
2022/08/04 08:00:29;;;;;;;7.00;2.50;;;;;;;41.13;17.13;100019.49;105059;1274;59566;-79
2022/08/04 08:03:19;;;;;;;9.00;2.40;;;;;;;41.21;16.84;100017.95;105198;1273;73344;-79
2022/08/04 08:06:08;;;;;;;9.20;2.20;;;;;;;41.41;16.72;100021.90;105262;1273;68134;-78
2022/08/04 08:09:22;;;;;;;6.50;2.30;;;;;;;41.51;16.48;100020.52;104985;1275;71636;-79
2022/08/04 08:12:11;;;;;;;8.20;2.30;;;;;;;41.69;16.41;100023.61;104993;1273;59789;-78
2022/08/04 08:15:19;;;;;;;8.30;2.30;;;;;;;41.30;16.51;100026.65;105195;1275;60503;-77
2022/08/04 08:18:07;;;;;;;7.20;2.00;;;;;;;41.01;16.94;100026.63;105171;1274;73704;-80
2022/08/04 08:20:57;;;;;;;7.50;2.10;;;;;;;40.75;17.12;100021.00;105302;1274;67521;-78
2022/08/04 08:23:45;;;;;;;7.80;2.00;;;;;;;40.92;17.06;100015.61;105532;1276;72900;-78
2022/08/04 08:26:34;;;;;;;7.60;2.10;;;;;;;41.19;16.98;100020.09;105021;1275;59735;-75
2022/08/04 08:29:25;;;;;;;7.20;2.10;;;;;;;41.33;16.73;100018.34;105111;1274;59704;-79
2022/08/04 08:32:14;;;;;;;8.20;2.70;;;;;;;41.47;16.65;100012.55;105017;1276;73344;-76
2022/08/04 08:35:03;;;;;;;8.80;2.10;;;;;;;41.87;16.58;100018.95;105156;1274;67795;-78
2022/08/04 08:38:02;;;;;;;7.80;1.90;;;;;;;42.09;16.41;100019.28;105486;1276;74002;-79
2022/08/04 08:41:06;;;;;;;7.40;2.40;;;;;;;42.35;16.12;100017.77;105134;1276;59731;-78
2022/08/04 08:44:44;;;;;;;6.80;2.00;;;;;;;42.48;15.80;100019.85;105087;1276;60334;-77
2022/08/04 08:47:49;;;;;;;6.40;1.90;;;;;;;42.11;16.13;100020.42;105428;1276;72416;-79
2022/08/04 08:51:31;;;;;;;6.20;2.10;;;;;;;41.54;16.50;100018.70;105070;1275;68017;-77
2022/08/04 08:54:37;;;;;;;8.70;2.10;;;;;;;41.34;16.82;100011.32;105373;1274;73469;-76
2022/08/04 08:57:43;;;;;;;7.40;2.00;;;;;;;40.94;17.10;100009.69;105920;1273;61271;-77
2022/08/04 09:01:04;;;;;;;8.20;2.10;;;;;;;40.54;17.55;100010.84;105144;1273;60584;-78
2022/08/04 09:04:07;;;;;;;7.80;2.30;;;;;;;40.75;17.47;100012.91;104940;1273;72223;-77
2022/08/04 09:07:23;;;;;;;8.10;2.10;;;;;;;40.83;17.56;100011.12;104911;1273;69635;-79
2022/08/04 09:10:17;;;;;;;7.30;2.30;;;;;;;41.06;17.51;100008.73;105244;1273;73817;-78
2022/08/04 09:13:59;;;;;;;7.50;2.00;;;;;;;41.70;17.09;100006.79;105002;1273;59683;-77
2022/08/04 09:17:10;;;;;;;7.40;2.00;;;;;;;41.86;16.53;100004.56;105057;1273;59607;-78
2022/08/04 09:20:24;;;;;;;6.30;2.10;;;;;;;41.74;16.54;100003.55;104963;1273;73111;-77
2022/08/04 09:23:40;;;;;;;7.10;2.20;;;;;;;42.05;16.65;99996.94;105147;1274;66315;-80
2022/08/04 09:26:57;;;;;;;8.30;2.00;;;;;;;42.59;16.00;99999.17;104932;1273;72753;-78
2022/08/04 09:30:07;;;;;;;6.30;2.00;;;;;;;42.64;16.02;99995.16;104931;1274;59610;-77
2022/08/04 09:33:17;;;;;;;6.70;2.30;;;;;;;42.51;16.06;99995.70;105038;1273;59562;-77
2022/08/04 09:36:33;;;;;;;7.80;1.80;;;;;;;42.46;16.10;99996.60;105217;1273;73347;-78
2022/08/04 09:39:45;;;;;;;5.60;2.20;;;;;;;42.74;16.02;99989.57;105184;1273;67139;-78
2022/08/04 09:43:04;;;;;;;7.30;1.80;;;;;;;43.43;15.63;99987.54;105026;1273;72954;-77
2022/08/04 09:46:05;;;;;;;7.20;2.00;;;;;;;43.63;14.84;99984.45;105085;1273;59772;-77
2022/08/04 09:49:37;;;;;;;7.80;2.10;;;;;;;43.83;14.81;99979.48;105036;1273;60243;-78
2022/08/04 09:52:41;;;;;;;8.00;2.10;;;;;;;43.72;14.80;99980.35;105239;1273;75213;-77
2022/08/04 09:55:47;;;;;;;8.50;1.90;;;;;;;43.30;15.10;99983.42;105001;1273;68055;-77
2022/08/04 09:59:17;;;;;;;6.50;2.30;;;;;;;42.88;15.36;99977.16;105095;1273;73795;-76
2022/08/04 10:02:10;;;;;;;6.80;2.20;;;;;;;42.56;15.45;99980.93;105258;1273;59986;-78
2022/08/04 10:05:02;;;;;;;6.80;2.00;;;;;;;42.49;15.61;99983.27;105428;1273;60433;-77
2022/08/04 10:08:34;;;;;;;7.00;2.20;;;;;;;42.60;15.56;99973.45;105867;1273;73298;-78
2022/08/04 10:12:02;;;;;;;5.50;2.00;;;;;;;42.60;15.70;99972.81;106146;1273;68584;-79
2022/08/04 10:15:19;;;;;;;6.30;2.10;;;;;;;42.10;16.21;99984.52;105608;1273;71644;-74
2022/08/04 10:18:56;;;;;;;8.50;2.20;;;;;;;42.04;16.36;99979.64;105064;1273;59662;-76
2022/08/04 10:22:07;;;;;;;14.00;2.80;;;;;;;42.25;16.14;99971.67;105127;1273;60354;-76
2022/08/04 10:25:44;;;;;;;7.60;2.20;;;;;;;41.84;16.38;99967.20;105170;1273;73839;-75
2022/08/04 10:29:01;;;;;;;8.20;2.10;;;;;;;41.08;17.12;99966.41;105083;1273;66513;-77
2022/08/04 10:32:13;;;;;;;9.00;2.70;;;;;;;41.09;17.00;99962.39;105055;1274;71623;-77
2022/08/04 10:35:17;;;;;;;8.10;2.60;;;;;;;41.37;16.87;99964.71;105010;1274;59871;-76
2022/08/04 10:38:44;;;;;;;7.50;2.40;;;;;;;41.89;16.57;99963.84;105332;1274;60465;-77
2022/08/04 10:42:26;;;;;;;7.90;2.30;;;;;;;41.91;16.36;99969.02;105189;1273;73325;-76
2022/08/04 10:45:27;;;;;;;10.90;2.90;;;;;;;41.59;16.59;99964.24;105347;1274;68511;-75
2022/08/04 10:48:41;;;;;;;8.70;3.00;;;;;;;41.98;16.71;99960.05;104948;1273;74694;-76
2022/08/04 10:51:53;;;;;;;8.80;2.70;;;;;;;42.45;16.20;99962.36;104966;1273;59756;-74
2022/08/04 10:55:20;;;;;;;7.40;2.50;;;;;;;42.49;16.16;99957.59;105097;1273;60552;-77
2022/08/04 10:58:17;;;;;;;6.80;2.40;;;;;;;42.90;15.56;99955.59;105322;1273;71943;-74
2022/08/04 11:01:31;;;;;;;7.50;2.50;;;;;;;42.48;15.79;99963.84;105206;1273;68147;-73
2022/08/04 11:04:55;;;;;;;8.00;2.20;;;;;;;42.37;16.00;99957.02;105031;1273;73459;-74
2022/08/04 11:07:49;;;;;;;8.30;3.70;;;;;;;42.75;15.51;99954.06;105105;1274;59727;-76
2022/08/04 11:10:57;;;;;;;7.30;3.20;;;;;;;43.25;15.32;99942.77;105020;1273;60472;-78
2022/08/04 11:14:11;;;;;;;7.10;2.30;;;;;;;43.82;14.95;99941.33;104914;1273;72949;-75
2022/08/04 11:17:18;;;;;;;6.90;2.50;;;;;;;43.69;14.80;99943.91;105335;1273;67204;-74
2022/08/04 11:21:12;;;;;;;7.90;2.30;;;;;;;43.35;15.08;99944.29;105571;1273;72594;-77
2022/08/04 11:24:32;;;;;;;6.10;2.50;;;;;;;43.09;15.20;99942.98;105119;1280;59660;-74
2022/08/04 11:27:39;;;;;;;8.30;2.50;;;;;;;42.38;15.65;99934.60;104730;1281;62077;-74
2022/08/04 11:30:36;;;;;;;6.90;2.70;;;;;;;40.95;16.84;99933.52;104400;1282;72039;-73
2022/08/04 11:34:10;;;;;;;10.40;2.50;;;;;;;40.17;17.64;99941.90;104680;1281;68097;-75
2022/08/04 11:37:16;;;;;;;7.10;2.60;;;;;;;39.74;18.38;99943.30;104393;1281;73331;-74
2022/08/04 11:40:39;;;;;;;8.60;2.90;;;;;;;39.74;19.80;99936.80;104243;1281;59999;-76
2022/08/04 11:43:57;;;;;;;10.80;3.30;;;;;;;39.47;20.24;99934.66;104726;1281;61557;-78
2022/08/04 11:46:59;;;;;;;8.30;3.00;;;;;;;38.85;20.80;99932.02;104812;1280;73711;-76
2022/08/04 11:50:10;;;;;;;9.00;2.80;;;;;;;38.50;21.68;99933.04;104720;1281;68076;-73
2022/08/04 11:52:59;;;;;;;9.40;3.10;;;;;;;38.30;22.23;99936.10;104650;1281;71812;-75
2022/08/04 11:55:51;;;;;;;9.70;3.00;;;;;;;38.09;22.54;99929.42;104570;1281;59665;-76
2022/08/04 11:59:00;;;;;;;7.40;3.20;;;;;;;37.65;22.87;99930.64;105274;1274;59634;-78
2022/08/04 12:02:16;;;;;;;10.40;3.20;;;;;;;37.10;23.49;99932.33;105054;1274;73153;-78
2022/08/04 12:05:08;;;;;;;10.10;3.50;;;;;;;36.48;24.35;99929.70;105054;1273;67567;-77
2022/08/04 12:08:53;;;;;;;11.90;3.60;;;;;;;35.98;25.12;99928.40;105399;1274;72921;-75
2022/08/04 12:12:24;;;;;;;7.30;3.20;;;;;;;35.63;25.51;99924.16;104986;1273;59666;-76
2022/08/04 12:15:31;;;;;;;7.70;3.30;;;;;;;35.33;25.93;99934.35;105059;1274;59656;-76
2022/08/04 12:18:29;;;;;;;8.60;3.50;;;;;;;35.04;26.07;99935.31;105260;1273;71967;-77
2022/08/04 12:21:28;;;;;;;8.20;3.50;;;;;;;34.84;26.59;99937.96;104911;1274;69617;-75
2022/08/04 12:24:21;;;;;;;8.40;3.60;;;;;;;34.55;26.76;99935.42;105327;1273;72920;-76
2022/08/04 12:27:52;;;;;;;11.00;4.30;;;;;;;34.30;27.17;99935.48;104851;1274;59668;-78
2022/08/04 12:30:50;;;;;;;9.50;3.90;;;;;;;34.03;27.61;99937.24;104841;1281;59807;-77
2022/08/04 12:34:24;;;;;;;9.10;4.40;;;;;;;33.82;27.65;99929.88;104593;1281;73352;-76
2022/08/04 12:37:41;;;;;;;10.30;4.60;;;;;;;33.53;28.49;99931.59;104445;1281;68565;-74
2022/08/04 12:40:44;;;;;;;9.10;4.20;;;;;;;33.32;28.22;99931.67;104467;1281;71620;-76
2022/08/04 12:43:41;;;;;;;12.00;3.90;;;;;;;33.22;28.56;99932.14;104655;1281;59864;-78
2022/08/04 12:46:31;;;;;;;10.40;4.90;;;;;;;33.19;28.88;99930.75;104408;1281;59725;-76
2022/08/04 12:49:22;;;;;;;9.60;3.80;;;;;;;33.04;29.59;99921.78;104358;1281;73356;-76
2022/08/04 12:52:13;;;;;;;8.80;4.50;;;;;;;32.85;29.53;99922.84;104661;1281;66681;-74
2022/08/04 12:55:04;;;;;;;8.70;3.90;;;;;;;32.70;29.61;99918.16;104790;1281;71626;-76
2022/08/04 12:57:54;;;;;;;8.30;3.90;;;;;;;32.61;29.67;99923.77;104441;1281;59678;-74
2022/08/04 13:00:49;;;;;;;7.70;3.70;;;;;;;32.47;29.75;99920.75;104641;1281;59549;-76
2022/08/04 13:03:55;;;;;;;13.40;4.00;;;;;;;32.33;30.01;99917.15;104622;1281;72775;-75
2022/08/04 13:06:43;;;;;;;11.30;4.10;;;;;;;32.24;29.93;99916.18;105024;1274;69538;-76
2022/08/04 13:09:33;;;;;;;17.30;8.40;;;;;;;32.11;30.62;99915.96;105195;1273;72862;-75
2022/08/04 13:12:25;;;;;;;10.30;5.60;;;;;;;32.04;31.02;99911.68;105074;1273;59711;-74
2022/08/04 13:15:22;;;;;;;13.50;6.60;;;;;;;31.94;30.58;99909.96;104971;1273;59669;-74
2022/08/04 13:18:12;;;;;;;12.60;6.00;;;;;;;31.79;30.88;99902.67;104970;1274;74784;-74
2022/08/04 13:21:16;;;;;;;14.10;6.60;;;;;;;31.69;30.94;99898.73;104949;1274;67652;-75
2022/08/04 13:24:15;;;;;;;13.80;5.40;;;;;;;31.65;31.26;99899.86;104957;1273;73876;-75
2022/08/04 13:27:19;;;;;;;8.50;4.50;;;;;;;31.63;31.65;99901.39;105113;1274;59725;-74
2022/08/04 13:30:09;;;;;;;10.80;4.50;;;;;;;31.57;31.85;99898.24;104967;1274;62648;-74
2022/08/04 13:33:11;;;;;;;10.40;4.60;;;;;;;31.48;31.68;99896.52;105013;1273;73016;-75
2022/08/04 13:36:00;;;;;;;8.90;5.50;;;;;;;31.43;32.13;99896.15;105022;1274;68341;-74
2022/08/04 13:39:05;;;;;;;8.90;4.30;;;;;;;31.39;32.39;99895.90;104967;1274;74413;-73
2022/08/04 13:41:57;;;;;;;10.80;5.60;;;;;;;31.41;32.15;99888.81;105153;1274;59762;-74
2022/08/04 13:44:55;;;;;;;8.90;4.20;;;;;;;31.42;32.13;99890.14;105196;1274;60760;-74
2022/08/04 13:47:47;;;;;;;10.70;4.20;;;;;;;31.36;32.17;99881.90;104913;1274;73292;-72
2022/08/04 13:50:37;;;;;;;8.60;4.20;;;;;;;31.28;32.23;99880.73;105062;1273;68500;-73
2022/08/04 13:53:25;;;;;;;11.90;4.40;;;;;;;31.31;32.48;99885.10;104894;1273;72934;-75
2022/08/04 13:56:19;;;;;;;8.10;4.30;;;;;;;31.37;32.37;99887.29;104979;1274;59565;-73
2022/08/04 13:59:13;;;;;;;8.80;5.40;;;;;;;31.41;32.09;99881.89;104888;1274;59646;-74
2022/08/04 14:02:13;;;;;;;10.20;4.70;;;;;;;31.39;31.81;99883.46;104903;1274;73396;-74
2022/08/04 14:05:14;;;;;;;15.40;6.40;;;;;;;31.35;32.05;99884.65;105190;1274;68185;-73
2022/08/04 14:08:14;;;;;;;11.70;5.90;;;;;;;31.35;32.03;99884.81;104952;1273;74621;-72
2022/08/04 14:11:02;;;;;;;11.30;5.70;;;;;;;31.31;31.94;99881.87;104994;1274;59660;-75
2022/08/04 14:13:53;;;;;;;8.70;4.20;;;;;;;31.27;32.02;99883.47;105209;1273;60449;-72